Daikoku — JD3247 — position and weather

sailwx.info

Track history (hours):
 
Tides and Currents Weather Stations Pressure Air Temp Water Temp Dewpoint Dewpoint Depression Visibility Wind Speed Wind Dir Waves Ship Positions

Daikoku

Last reported at 2016-Dec-11 07:29 UTC. Time now 2016-Dec-11 08:05 UTC.
Position N 34°41' E 135°13'.

Length 95 m; draft 4.1 m.

Type: Cargo ship. MMSI: 431003009.

Date/timePositionNaut miles runAvg speedWind from/ knotsBaromVisibWave heightAir tempDewpointWater temp
2016-Dec-11 07:29N 34°41' E 135°13'0 0.0
2016-Dec-11 06:29N 34°41' E 135°13'0 0.0
2016-Dec-11 05:29N 34°41' E 135°13'0 0.0
2016-Dec-11 04:23N 34°41' E 135°13'0 0.0
2016-Dec-11 03:17N 34°41' E 135°13'0 0.0
2016-Dec-11 02:29N 34°41' E 135°13'0 0.0
2016-Dec-11 01:23N 34°41' E 135°13'0 0.0
2016-Dec-11 00:23N 34°41' E 135°13'0 0.0
2016-Dec-10 23:23N 34°41' E 135°13'1 1.3
2016-Dec-10 22:34N 34°41' E 135°14'4 4.0
2016-Dec-10 21:31N 34°37' E 135°16'0 0.0
2016-Dec-10 20:25N 34°37' E 135°16'0 0.0
2016-Dec-10 19:31N 34°37' E 135°16'0 0.0
2016-Dec-10 18:13N 34°37' E 135°16'0 0.1
2016-Dec-10 17:31N 34°37' E 135°16'0 0.0
2016-Dec-10 16:25N 34°37' E 135°16'0 0.0
2016-Dec-10 15:16N 34°37' E 135°16'6 7.8
2016-Dec-10 14:33N 34°35' E 135°10'7 0.2
2016-Dec-09 08:30N 34°37' E 135°01'1112.1
2016-Dec-09 07:33N 34°38' E 135°15'2 2.3
2016-Dec-09 06:33N 34°40' E 135°14'0 0.3
2016-Dec-09 05:33N 34°40' E 135°14'1 0.5
2016-Dec-09 04:28N 34°39' E 135°15'3 2.9
2016-Dec-09 03:33N 34°37' E 135°15'1 0.9
2016-Dec-09 02:33N 34°38' E 135°15'3 2.9
2016-Dec-09 01:25N 34°41' E 135°17'2 1.8
2016-Dec-09 00:33N 34°40' E 135°15'10 9.6
2016-Dec-08 23:33N 34°34' E 135°05'  
2016-Dec-02 08:17N 34°37' E 134°57'7 9.0
2016-Dec-02 07:33N 34°36' E 135°05'1111.3
2016-Dec-02 06:33N 34°39' E 135°18'2 2.2
2016-Dec-02 05:33N 34°41' E 135°17'2 2.0
2016-Dec-02 04:27N 34°39' E 135°15'0 0.0
2016-Dec-02 03:33N 34°39' E 135°15'0 0.0
2016-Dec-02 02:33N 34°39' E 135°15'3 2.6
2016-Dec-02 01:27N 34°36' E 135°15'0 0.0
2016-Dec-02 00:21N 34°36' E 135°15'0 0.0
2016-Dec-01 23:27N 34°36' E 135°15'0 0.0
2016-Dec-01 22:27N 34°36' E 135°15'0 0.1
2016-Dec-01 21:33N 34°36' E 135°15'1110.8
2016-Dec-01 20:33N 34°37' E 135°02'  
Track history (hours):
 
Tides and Currents Weather Stations Pressure Air Temp Water Temp Dewpoint Dewpoint Depression Visibility Wind Speed Wind Dir Waves Ship Positions

Daikoku

Last reported at 2016-Dec-11 07:29 UTC. Time now 2016-Dec-11 08:05 UTC.
Position N 34°41' E 135°13'.

Length 95 m; draft 4.1 m.

Type: Cargo ship. MMSI: 431003009.

Date/timePositionNaut miles runAvg speedWind from/ knotsBaromVisibWave heightAir tempDewpointWater temp
2016-Dec-11 07:29N 34°41' E 135°13'0 0.0
2016-Dec-11 06:29N 34°41' E 135°13'0 0.0
2016-Dec-11 05:29N 34°41' E 135°13'0 0.0
2016-Dec-11 04:23N 34°41' E 135°13'0 0.0
2016-Dec-11 03:17N 34°41' E 135°13'0 0.0
2016-Dec-11 02:29N 34°41' E 135°13'0 0.0
2016-Dec-11 01:23N 34°41' E 135°13'0 0.0
2016-Dec-11 00:23N 34°41' E 135°13'0 0.0
2016-Dec-10 23:23N 34°41' E 135°13'1 1.3
2016-Dec-10 22:34N 34°41' E 135°14'4 4.0
2016-Dec-10 21:31N 34°37' E 135°16'0 0.0
2016-Dec-10 20:25N 34°37' E 135°16'0 0.0
2016-Dec-10 19:31N 34°37' E 135°16'0 0.0
2016-Dec-10 18:13N 34°37' E 135°16'0 0.1
2016-Dec-10 17:31N 34°37' E 135°16'0 0.0
2016-Dec-10 16:25N 34°37' E 135°16'0 0.0
2016-Dec-10 15:16N 34°37' E 135°16'6 7.8
2016-Dec-10 14:33N 34°35' E 135°10'7 0.2
2016-Dec-09 08:30N 34°37' E 135°01'1112.1
2016-Dec-09 07:33N 34°38' E 135°15'2 2.3
2016-Dec-09 06:33N 34°40' E 135°14'0 0.3
2016-Dec-09 05:33N 34°40' E 135°14'1 0.5
2016-Dec-09 04:28N 34°39' E 135°15'3 2.9
2016-Dec-09 03:33N 34°37' E 135°15'1 0.9
2016-Dec-09 02:33N 34°38' E 135°15'3 2.9
2016-Dec-09 01:25N 34°41' E 135°17'2 1.8
2016-Dec-09 00:33N 34°40' E 135°15'10 9.6
2016-Dec-08 23:33N 34°34' E 135°05'  
2016-Dec-02 08:17N 34°37' E 134°57'7 9.0
2016-Dec-02 07:33N 34°36' E 135°05'1111.3
2016-Dec-02 06:33N 34°39' E 135°18'2 2.2
2016-Dec-02 05:33N 34°41' E 135°17'2 2.0
2016-Dec-02 04:27N 34°39' E 135°15'0 0.0
2016-Dec-02 03:33N 34°39' E 135°15'0 0.0
2016-Dec-02 02:33N 34°39' E 135°15'3 2.6
2016-Dec-02 01:27N 34°36' E 135°15'0 0.0
2016-Dec-02 00:21N 34°36' E 135°15'0 0.0
2016-Dec-01 23:27N 34°36' E 135°15'0 0.0
2016-Dec-01 22:27N 34°36' E 135°15'0 0.1
2016-Dec-01 21:33N 34°36' E 135°15'1110.8
2016-Dec-01 20:33N 34°37' E 135°02'  

Dump ship's entire track history